createdAt,value
2023-04-02T00:01:09.011Z,0.99
2023-04-02T00:04:14.667Z,1.02
2023-04-02T00:06:47.565Z,0.94
2023-04-02T00:09:34.049Z,0.95
2023-04-02T00:12:21.198Z,0.91
2023-04-02T00:14:55.128Z,0.89
2023-04-02T00:17:28.019Z,0.88
2023-04-02T00:20:06.502Z,1.06
2023-04-02T00:22:36.533Z,0.96
2023-04-02T00:25:16.459Z,0.89
2023-04-02T00:27:49.511Z,0.85
2023-04-02T00:30:19.480Z,0.81
2023-04-02T00:32:49.568Z,0.73
2023-04-02T00:35:27.933Z,0.75
2023-04-02T00:38:00.124Z,0.84
2023-04-02T00:40:34.327Z,0.72
2023-04-02T00:43:16.887Z,0.76
2023-04-02T00:45:54.858Z,0.76
2023-04-02T00:48:40.718Z,0.79
2023-04-02T00:51:23.930Z,0.72
2023-04-02T00:53:59.511Z,0.71
2023-04-02T00:56:36.424Z,0.80
2023-04-02T00:59:23.641Z,0.67
2023-04-02T01:01:57.146Z,0.66
2023-04-02T01:04:37.904Z,0.64
2023-04-02T01:07:13.423Z,0.86
2023-04-02T01:10:10.774Z,0.90
2023-04-02T01:13:00.221Z,0.72
2023-04-02T01:15:41.388Z,0.71
2023-04-02T01:18:33.440Z,0.76
2023-04-02T01:21:29.200Z,0.71
2023-04-02T01:24:07.389Z,0.71
2023-04-02T01:26:50.117Z,0.76
2023-04-02T01:29:31.734Z,0.60
2023-04-02T01:32:05.690Z,0.69
2023-04-02T01:34:38.070Z,0.64
2023-04-02T01:37:32.497Z,0.66
2023-04-02T01:40:27.017Z,0.67
2023-04-02T01:43:09.286Z,0.69
2023-04-02T01:45:41.916Z,0.76
2023-04-02T01:48:20.101Z,0.83
2023-04-02T01:50:55.140Z,0.75
2023-04-02T01:53:29.944Z,0.74
2023-04-02T01:56:02.346Z,0.91
2023-04-02T01:58:34.601Z,0.69
2023-04-02T02:01:17.327Z,0.88
2023-04-02T02:03:48.438Z,0.88
2023-04-02T02:06:20.682Z,0.85
2023-04-02T02:08:54.454Z,0.90
2023-04-02T02:11:27.752Z,0.84
2023-04-02T02:14:01.021Z,0.97
2023-04-02T02:16:41.809Z,1.33
2023-04-02T02:19:26.179Z,1.04
2023-04-02T02:21:59.938Z,0.96
2023-04-02T02:24:35.861Z,1.02
2023-04-02T02:27:35.766Z,0.95
2023-04-02T02:30:19.117Z,1.05
2023-04-02T02:33:01.313Z,1.01
2023-04-02T02:35:37.993Z,1.14
2023-04-02T02:38:32.910Z,1.06
2023-04-02T02:41:17.135Z,1.23
2023-04-02T02:43:53.767Z,1.07
2023-04-02T02:46:28.196Z,0.99
2023-04-02T02:49:04.849Z,0.87
2023-04-02T02:51:45.159Z,1.00
2023-04-02T02:54:22.092Z,1.07
2023-04-02T02:56:59.894Z,1.09
2023-04-02T02:59:33.467Z,1.09
2023-04-02T03:02:08.273Z,1.02
2023-04-02T03:04:41.652Z,1.04
2023-04-02T03:07:19.451Z,0.99
2023-04-02T03:09:57.512Z,0.94
2023-04-02T03:12:39.649Z,1.05
2023-04-02T03:15:21.589Z,1.15
2023-04-02T03:17:58.588Z,1.22
2023-04-02T03:20:41.893Z,1.14
2023-04-02T03:23:24.656Z,1.09
2023-04-02T03:26:05.084Z,1.16
2023-04-02T03:28:44.139Z,1.12
2023-04-02T03:31:22.430Z,1.14
2023-04-02T03:33:58.508Z,1.11
2023-04-02T03:36:43.707Z,1.02
2023-04-02T03:39:25.491Z,1.14
2023-04-02T03:42:03.152Z,1.24
2023-04-02T03:44:39.621Z,1.16
2023-04-02T03:47:19.878Z,1.10
2023-04-02T03:49:59.150Z,1.18
2023-04-02T03:52:33.187Z,1.21
2023-04-02T03:55:16.123Z,1.11
2023-04-02T03:57:57.106Z,1.30
2023-04-02T04:00:39.254Z,1.31
2023-04-02T04:03:17.197Z,1.31
2023-04-02T04:05:53.700Z,1.40
2023-04-02T04:08:38.208Z,1.47
2023-04-02T04:11:16.647Z,1.30
2023-04-02T04:13:53.961Z,1.51
2023-04-02T04:16:31.134Z,1.52
2023-04-02T04:19:08.305Z,1.50
2023-04-02T04:21:40.099Z,1.62
2023-04-02T04:24:26.004Z,1.56
2023-04-02T04:27:09.746Z,1.62
2023-04-02T04:29:55.630Z,1.52
2023-04-02T04:32:32.368Z,1.47
2023-04-02T04:35:18.598Z,1.51
2023-04-02T04:37:53.760Z,1.38
2023-04-02T04:40:33.006Z,1.43
2023-04-02T04:43:08.470Z,1.39
2023-04-02T04:45:47.823Z,1.50
2023-04-02T04:48:27.606Z,1.62
2023-04-02T04:51:05.299Z,1.35
2023-04-02T04:53:35.857Z,1.47
2023-04-02T04:56:18.909Z,1.53
2023-04-02T04:59:00.683Z,1.52
2023-04-02T05:01:40.524Z,1.52
2023-04-02T05:04:20.489Z,1.58
2023-04-02T05:06:58.472Z,1.58
2023-04-02T05:09:37.762Z,1.84
2023-04-02T05:12:21.312Z,1.75
2023-04-02T05:14:59.500Z,1.60
2023-04-02T05:17:36.693Z,1.78
2023-04-02T05:20:18.311Z,1.72
2023-04-02T05:22:57.707Z,1.72
2023-04-02T05:25:31.172Z,1.66
2023-04-02T05:28:14.377Z,1.76
2023-04-02T05:30:53.103Z,1.80
2023-04-02T05:33:28.853Z,1.95
2023-04-02T05:36:06.207Z,1.76
2023-04-02T05:38:48.817Z,1.92
2023-04-02T05:41:31.341Z,1.89
2023-04-02T05:44:15.072Z,1.78
2023-04-02T05:46:52.648Z,2.12
2023-04-02T05:49:35.781Z,1.90
2023-04-02T05:52:11.358Z,1.83
2023-04-02T05:54:52.018Z,1.79
2023-04-02T05:57:42.422Z,1.62
2023-04-02T06:00:28.142Z,1.89
2023-04-02T06:03:07.670Z,1.80
2023-04-02T06:05:45.182Z,1.75
2023-04-02T06:08:24.106Z,1.62
2023-04-02T06:11:01.873Z,1.74
2023-04-02T06:13:32.497Z,4.08
2023-04-02T06:16:06.458Z,3.36
2023-04-02T06:18:39.700Z,2.21
2023-04-02T06:21:09.697Z,1.80
2023-04-02T06:23:46.875Z,2.04
2023-04-02T06:26:24.912Z,2.84
2023-04-02T06:29:04.190Z,2.76
2023-04-02T06:31:41.903Z,2.38
2023-04-02T06:34:20.047Z,2.14
2023-04-02T06:37:15.831Z,2.06
2023-04-02T06:39:46.776Z,2.16
2023-04-02T06:42:24.069Z,2.25
2023-04-02T06:45:23.291Z,4.93
2023-04-02T06:48:22.780Z,2.16
2023-04-02T06:51:07.225Z,1.88
2023-04-02T06:53:41.919Z,1.86
2023-04-02T06:56:27.183Z,1.99
2023-04-02T06:58:57.692Z,1.99
2023-04-02T07:01:33.603Z,2.09
2023-04-02T07:04:06.384Z,2.11
2023-04-02T07:06:41.849Z,2.05
2023-04-02T07:09:13.056Z,2.02
2023-04-02T07:11:46.917Z,4.26
2023-04-02T07:14:17.726Z,2.75
2023-04-02T07:16:47.948Z,2.11
2023-04-02T07:19:25.016Z,2.00
2023-04-02T07:21:58.953Z,1.92
2023-04-02T07:24:34.252Z,1.83
2023-04-02T07:27:04.167Z,2.06
2023-04-02T07:29:43.006Z,1.91
2023-04-02T07:32:13.910Z,2.10
2023-04-02T07:34:46.493Z,2.00
2023-04-02T07:37:17.383Z,1.85
2023-04-02T07:39:47.347Z,2.91
2023-04-02T07:42:17.312Z,3.27
2023-04-02T07:44:47.250Z,3.80
2023-04-02T07:47:17.391Z,3.93
2023-04-02T07:49:49.988Z,2.71
2023-04-02T07:52:19.907Z,2.62
2023-04-02T07:54:50.138Z,2.68
2023-04-02T07:57:20.179Z,2.61
2023-04-02T07:59:50.906Z,2.69
2023-04-02T08:02:24.576Z,3.09
2023-04-02T08:04:57.126Z,5.72
2023-04-02T08:07:27.240Z,4.52
2023-04-02T08:09:57.199Z,4.41
2023-04-02T08:12:27.242Z,4.23
2023-04-02T08:14:57.319Z,3.59
2023-04-02T08:17:31.368Z,7.23
2023-04-02T08:20:04.520Z,5.33
2023-04-02T08:22:34.482Z,2.87
2023-04-02T08:25:04.449Z,2.77
2023-04-02T08:27:34.488Z,3.17
2023-04-02T08:30:04.451Z,3.82
2023-04-02T08:32:34.530Z,2.78
2023-04-02T08:35:07.685Z,2.36
2023-04-02T08:37:37.623Z,2.30
2023-04-02T08:40:10.283Z,2.87
2023-04-02T08:42:49.411Z,5.61
2023-04-02T08:45:27.419Z,2.92
2023-04-02T08:48:03.485Z,2.90
2023-04-02T08:50:40.331Z,2.46
2023-04-02T08:53:18.682Z,2.10
2023-04-02T08:56:00.129Z,2.40
2023-04-02T08:58:43.323Z,2.17
2023-04-02T09:01:28.014Z,2.14
2023-04-02T09:04:02.160Z,2.98
2023-04-02T09:06:37.406Z,1.94
2023-04-02T09:09:07.900Z,2.04
2023-04-02T09:11:47.931Z,1.88
2023-04-02T09:14:22.858Z,1.94
2023-04-02T09:16:57.364Z,1.85
2023-04-02T09:19:36.407Z,1.54
2023-04-02T09:22:21.018Z,1.99
2023-04-02T09:24:55.086Z,2.23
2023-04-02T09:27:28.274Z,2.24
2023-04-02T09:30:06.843Z,2.39
2023-04-02T09:32:52.012Z,2.43
2023-04-02T09:35:27.659Z,2.33
2023-04-02T09:38:22.471Z,2.30
2023-04-02T09:41:01.668Z,2.15
2023-04-02T09:43:33.701Z,2.75
2023-04-02T09:46:06.460Z,2.06
2023-04-02T09:48:39.484Z,1.75
2023-04-02T09:51:16.505Z,1.19
2023-04-02T09:53:51.914Z,1.55
2023-04-02T09:56:24.470Z,1.29
2023-04-02T09:59:07.119Z,1.04
2023-04-02T10:01:39.694Z,1.09
2023-04-02T10:04:44.277Z,1.12
2023-04-02T10:07:34.944Z,0.94
2023-04-02T10:10:25.269Z,1.02
2023-04-02T10:13:03.691Z,0.80
2023-04-02T10:15:40.053Z,0.48
2023-04-02T10:18:19.630Z,0.74
2023-04-02T10:20:53.762Z,1.38
2023-04-02T10:23:31.368Z,1.58
2023-04-02T10:26:17.015Z,1.32
2023-04-02T10:29:12.763Z,1.15
2023-04-02T10:31:56.432Z,0.89
2023-04-02T10:34:35.811Z,0.85
2023-04-02T10:37:28.731Z,1.11
2023-04-02T10:40:10.000Z,1.07
2023-04-02T10:42:55.821Z,1.08
2023-04-02T10:45:43.088Z,1.13
2023-04-02T10:48:23.024Z,1.76
2023-04-02T10:51:01.095Z,1.72
2023-04-02T10:53:42.985Z,1.45
2023-04-02T10:56:17.205Z,2.08
2023-04-02T10:59:01.124Z,1.61
2023-04-02T11:01:34.568Z,1.38
2023-04-02T11:06:49.215Z,1.30
2023-04-02T11:09:24.697Z,1.25
2023-04-02T11:11:58.855Z,1.23
2023-04-02T11:14:33.368Z,1.29
2023-04-02T11:17:05.756Z,1.14
2023-04-02T11:19:37.953Z,3.16
2023-04-02T11:22:19.090Z,1.48
2023-04-02T11:24:51.668Z,1.16
2023-04-02T11:27:29.306Z,1.27
2023-04-02T11:30:09.102Z,1.21
2023-04-02T11:32:43.575Z,1.65
2023-04-02T11:35:41.621Z,1.66
2023-04-02T11:38:46.900Z,1.19
2023-04-02T11:41:16.958Z,0.98
2023-04-02T11:44:04.911Z,0.99
2023-04-02T11:46:51.764Z,0.92
2023-04-02T11:49:38.156Z,1.04
2023-04-02T11:52:24.872Z,0.77
2023-04-02T11:55:04.722Z,1.04
2023-04-02T11:58:01.057Z,1.15
2023-04-02T12:01:11.852Z,1.09
2023-04-02T12:04:11.989Z,1.04
2023-04-02T12:07:01.137Z,1.58
2023-04-02T12:09:34.650Z,1.30
2023-04-02T12:12:20.623Z,1.08
2023-04-02T12:14:53.774Z,1.28
2023-04-02T12:17:30.787Z,1.21
2023-04-02T12:20:09.465Z,1.18
2023-04-02T12:22:43.451Z,1.04
2023-04-02T12:25:29.609Z,0.91
2023-04-02T12:28:20.808Z,0.98
2023-04-02T12:30:53.105Z,1.01
2023-04-02T12:33:33.860Z,1.16
2023-04-02T12:36:10.239Z,1.48
2023-04-02T12:38:50.153Z,1.00
2023-04-02T12:41:30.223Z,1.27
2023-04-02T12:44:01.473Z,1.23
2023-04-02T12:46:33.958Z,1.45
2023-04-02T12:49:09.185Z,1.64
2023-04-02T12:51:42.705Z,2.20
2023-04-02T12:54:20.671Z,2.40
2023-04-02T12:56:51.757Z,2.37
2023-04-02T12:59:34.807Z,3.18
2023-04-02T13:02:18.738Z,2.84
2023-04-02T13:04:52.734Z,3.13
2023-04-02T13:07:28.081Z,3.79
2023-04-02T13:10:00.209Z,3.19
2023-04-02T13:12:36.694Z,3.34
2023-04-02T13:15:10.631Z,2.78
2023-04-02T13:17:46.001Z,3.85
2023-04-02T13:20:34.006Z,4.92
2023-04-02T13:23:28.330Z,5.26
2023-04-02T13:25:59.248Z,5.65
2023-04-02T13:28:29.868Z,5.82
2023-04-02T13:30:59.918Z,6.16
2023-04-02T13:33:29.930Z,6.11
2023-04-02T13:36:00.109Z,5.84
2023-04-02T13:38:32.809Z,6.37
2023-04-02T13:41:02.803Z,5.64
2023-04-02T13:43:32.806Z,6.14
2023-04-02T13:46:04.149Z,6.08
2023-04-02T13:48:34.347Z,5.93
2023-04-02T13:51:04.937Z,5.94
2023-04-02T13:53:37.660Z,5.80
2023-04-02T13:56:08.597Z,5.68
2023-04-02T13:58:38.653Z,5.38
2023-04-02T14:01:08.868Z,5.12
2023-04-02T14:03:38.935Z,5.00
2023-04-02T14:06:19.638Z,4.72
2023-04-02T14:09:05.404Z,5.00
2023-04-02T14:11:50.240Z,4.60
2023-04-02T14:14:47.403Z,4.09
2023-04-02T14:17:32.358Z,4.26
2023-04-02T14:20:19.853Z,3.67
2023-04-02T14:23:06.955Z,2.73
2023-04-02T14:25:51.540Z,2.35
2023-04-02T14:28:38.069Z,2.69
2023-04-02T14:31:20.741Z,3.18
2023-04-02T14:34:03.771Z,2.62
2023-04-02T14:36:48.725Z,1.87
2023-04-02T14:39:35.240Z,1.57
2023-04-02T14:42:17.470Z,1.92
2023-04-02T14:44:55.289Z,1.62
2023-04-02T14:47:32.430Z,2.02
2023-04-02T14:50:14.436Z,2.13
2023-04-02T14:52:50.097Z,1.96
2023-04-02T14:55:30.591Z,2.18
2023-04-02T14:58:08.297Z,2.09
2023-04-02T15:00:44.155Z,2.51
2023-04-02T15:03:23.864Z,2.82
2023-04-02T15:06:00.819Z,2.63
2023-04-02T15:08:36.098Z,3.47
2023-04-02T15:11:14.387Z,3.69
2023-04-02T15:13:55.386Z,4.41
2023-04-02T15:16:27.903Z,3.19
2023-04-02T15:19:01.487Z,2.41
2023-04-02T15:21:57.712Z,2.05
2023-04-02T15:24:41.107Z,1.97
2023-04-02T15:27:26.189Z,2.32
2023-04-02T15:30:06.390Z,2.20
2023-04-02T15:32:41.378Z,2.62
2023-04-02T15:35:35.791Z,2.22
2023-04-02T15:38:17.028Z,2.25
2023-04-02T15:41:00.593Z,2.87
2023-04-02T15:43:34.405Z,3.26
2023-04-02T15:46:23.074Z,2.93
2023-04-02T15:49:20.254Z,2.58
2023-04-02T15:52:05.621Z,2.59
2023-04-02T15:54:54.989Z,3.06
2023-04-02T15:57:58.777Z,3.34
2023-04-02T16:00:31.823Z,3.72
2023-04-02T16:03:30.494Z,4.38
2023-04-02T16:06:23.737Z,4.57
2023-04-02T16:09:11.527Z,4.57
2023-04-02T16:11:41.614Z,4.63
2023-04-02T16:14:27.441Z,3.78
2023-04-02T16:17:10.838Z,3.60
2023-04-02T16:19:50.577Z,3.17
2023-04-02T16:22:27.219Z,2.71
2023-04-02T16:25:03.709Z,3.06
2023-04-02T16:27:41.159Z,3.33
2023-04-02T16:30:43.385Z,4.05
2023-04-02T16:33:35.811Z,4.82
2023-04-02T16:36:24.328Z,3.56
2023-04-02T16:39:02.163Z,2.63
2023-04-02T16:41:50.863Z,2.19
2023-04-02T16:44:33.729Z,1.88
2023-04-02T16:47:25.981Z,1.86
2023-04-02T16:50:05.221Z,2.52
2023-04-02T16:52:50.002Z,2.45
2023-04-02T16:55:36.262Z,2.27
2023-04-02T16:58:25.897Z,2.10
2023-04-02T17:01:03.593Z,2.07
2023-04-02T17:03:57.832Z,2.06
2023-04-02T17:06:42.746Z,2.04
2023-04-02T17:09:21.271Z,2.13
2023-04-02T17:11:55.617Z,2.26
2023-04-02T17:14:36.126Z,2.62
2023-04-02T17:17:08.291Z,2.45
2023-04-02T17:19:38.332Z,3.22
2023-04-02T17:22:08.820Z,3.26
2023-04-02T17:24:45.474Z,2.84
2023-04-02T17:27:24.609Z,3.08
2023-04-02T17:29:58.847Z,3.08
2023-04-02T17:32:31.742Z,2.41
2023-04-02T17:35:20.063Z,2.61
2023-04-02T17:37:56.506Z,2.67
2023-04-02T17:40:38.370Z,2.93
2023-04-02T17:43:21.099Z,2.77
2023-04-02T17:45:55.637Z,2.96
2023-04-02T17:48:35.712Z,3.25
2023-04-02T17:51:17.754Z,3.56
2023-04-02T17:54:02.332Z,3.87
2023-04-02T17:57:04.718Z,3.35
2023-04-02T17:59:54.157Z,4.27
2023-04-02T18:02:41.980Z,3.25
2023-04-02T18:05:27.812Z,4.28
2023-04-02T18:08:14.715Z,3.25
2023-04-02T18:11:01.936Z,3.16
2023-04-02T18:13:38.526Z,3.38
2023-04-02T18:16:19.930Z,3.67
2023-04-02T18:19:11.072Z,3.47
2023-04-02T18:21:50.899Z,3.50
2023-04-02T18:24:49.197Z,2.97
2023-04-02T18:27:32.776Z,3.31
2023-04-02T18:30:17.783Z,3.15
2023-04-02T18:33:10.411Z,3.33
2023-04-02T18:35:52.144Z,3.60
2023-04-02T18:38:34.566Z,3.78
2023-04-02T18:41:17.606Z,3.94
2023-04-02T18:44:04.316Z,4.28
2023-04-02T18:46:46.576Z,4.39
2023-04-02T18:49:30.026Z,4.20
2023-04-02T18:52:04.975Z,4.40
2023-04-02T18:54:38.785Z,4.49
2023-04-02T18:57:16.589Z,4.88
2023-04-02T18:59:53.971Z,5.01
2023-04-02T19:02:37.517Z,4.53
2023-04-02T19:05:16.738Z,4.67
2023-04-02T19:07:51.021Z,4.97
2023-04-02T19:10:34.009Z,5.01
2023-04-02T19:13:04.395Z,5.00
2023-04-02T19:15:50.876Z,5.26
2023-04-02T19:18:36.572Z,5.02
2023-04-02T19:21:21.639Z,4.57
2023-04-02T19:24:09.811Z,5.08
2023-04-02T19:26:52.048Z,4.95
2023-04-02T19:29:38.563Z,4.80
2023-04-02T19:32:21.771Z,4.98
2023-04-02T19:35:05.637Z,4.82
2023-04-02T19:37:42.584Z,5.06
2023-04-02T19:40:31.003Z,4.96
2023-04-02T19:43:01.579Z,5.21
2023-04-02T19:45:39.535Z,5.07
2023-04-02T19:48:16.726Z,4.59
2023-04-02T19:50:51.062Z,5.02
2023-04-02T19:53:22.358Z,4.68
2023-04-02T19:55:52.487Z,5.16
2023-04-02T19:58:30.626Z,4.84
2023-04-02T20:01:01.855Z,5.46
2023-04-02T20:03:33.819Z,4.74
2023-04-02T20:06:06.773Z,4.89
2023-04-02T20:08:36.988Z,4.92
2023-04-02T20:11:12.833Z,5.24
2023-04-02T20:13:43.146Z,4.94
2023-04-02T20:16:14.771Z,4.90
2023-04-02T20:18:45.862Z,4.68
2023-04-02T20:21:18.892Z,4.47
2023-04-02T20:23:49.034Z,4.12
2023-04-02T20:26:19.176Z,3.99
2023-04-02T20:28:49.499Z,4.24
2023-04-02T20:31:24.005Z,4.55
2023-04-02T20:33:58.243Z,4.26
2023-04-02T20:36:31.462Z,4.02
2023-04-02T20:39:01.677Z,5.84
2023-04-02T20:41:31.944Z,3.89
2023-04-02T20:44:02.244Z,4.02
2023-04-02T20:46:33.775Z,4.03
2023-04-02T20:49:04.087Z,3.91
2023-04-02T20:51:37.691Z,4.13
2023-04-02T20:54:08.010Z,3.92
2023-04-02T20:56:39.991Z,3.73
2023-04-02T20:59:13.301Z,3.80
2023-04-02T21:01:45.658Z,4.05
2023-04-02T21:04:16.450Z,4.01
2023-04-02T21:06:57.343Z,3.84
2023-04-02T21:10:04.380Z,3.91
2023-04-02T21:12:35.824Z,3.96
2023-04-02T21:15:05.982Z,3.81
2023-04-02T21:17:36.102Z,4.10
2023-04-02T21:20:06.609Z,4.04
2023-04-02T21:22:39.185Z,4.06
2023-04-02T21:25:09.973Z,4.02
2023-04-02T21:27:39.904Z,3.98
2023-04-02T21:30:11.586Z,3.97
2023-04-02T21:32:41.585Z,3.76
2023-04-02T21:35:12.209Z,3.85
2023-04-02T21:37:45.393Z,4.03
2023-04-02T21:40:15.394Z,3.98
2023-04-02T21:42:45.323Z,3.86
2023-04-02T21:45:15.629Z,4.08
2023-04-02T21:47:45.814Z,4.04
2023-04-02T21:50:15.913Z,3.85
2023-04-02T21:52:48.472Z,3.91
2023-04-02T21:55:18.834Z,3.83
2023-04-02T21:57:48.761Z,3.86
2023-04-02T22:00:19.352Z,3.97
2023-04-02T22:02:49.501Z,3.82
2023-04-02T22:05:19.705Z,4.04
2023-04-02T22:07:52.435Z,4.02
2023-04-02T22:10:22.430Z,4.12
2023-04-02T22:12:52.884Z,4.12
2023-04-02T22:15:22.875Z,4.21
2023-04-02T22:17:53.048Z,4.12
2023-04-02T22:20:23.272Z,4.01
2023-04-02T22:22:56.711Z,4.11
2023-04-02T22:25:26.760Z,4.07
2023-04-02T22:27:56.686Z,4.10
2023-04-02T22:30:30.115Z,3.98
2023-04-02T22:33:00.255Z,3.88
2023-04-02T22:35:32.026Z,3.58
2023-04-02T22:38:06.950Z,3.68
2023-04-02T22:40:37.352Z,3.79
2023-04-02T22:43:07.592Z,3.31
2023-04-02T22:45:37.726Z,3.59
2023-04-02T22:48:07.904Z,3.53
2023-04-02T22:50:38.097Z,3.67
2023-04-02T22:53:12.095Z,3.31
2023-04-02T22:55:42.222Z,3.47
2023-04-02T22:58:12.252Z,3.48
2023-04-02T23:00:42.473Z,3.45
2023-04-02T23:03:12.586Z,3.23
2023-04-02T23:05:43.124Z,3.34
2023-04-02T23:08:18.185Z,3.26
2023-04-02T23:10:51.586Z,3.18
2023-04-02T23:13:21.510Z,3.25
2023-04-02T23:15:51.697Z,3.34
2023-04-02T23:18:21.884Z,3.39
2023-04-02T23:20:51.929Z,3.12
2023-04-02T23:23:24.775Z,3.19
2023-04-02T23:26:05.882Z,3.07
2023-04-02T23:28:36.374Z,3.17
2023-04-02T23:31:08.825Z,3.14
2023-04-02T23:33:38.843Z,3.18
2023-04-02T23:36:14.259Z,3.13
2023-04-02T23:38:46.917Z,3.19
2023-04-02T23:41:18.070Z,3.04
2023-04-02T23:43:47.999Z,3.13
2023-04-02T23:46:18.028Z,3.17
2023-04-02T23:48:48.915Z,3.30
2023-04-02T23:51:19.529Z,2.95
2023-04-02T23:53:52.903Z,3.05
2023-04-02T23:56:23.317Z,3.05
2023-04-02T23:58:53.957Z,2.91
